PWSweather.com
Personal Weather Stations
Station Observations
KB2SBX
Sugarloaf, Sugarloaf, PA 18249

SugarloafSugarloaf, PA 18249

Lat: 41.0126685, Lon: -76.1082041

Elevation: 1030

Station Type: WS-2080

http://sugarloafpaweather.webng.com/weather.shtml

High Low Average
Temperature 54.1°F12.3°C 35.6°F2.0°C 43.7°F6.5°C
Dew Point 35.8°F2.1°C 23.6°F-4.7°C 30.9°F-0.6°C
Winds 4.3 mph 6.9 kmh Calm Calm 2.0 mph S3.2 kmh S
Wind Gusts 17.4 mph28.0 kmh -- 6.0 mph9.7 kmh
Humidity 92% 31% 65%
Pressure 29.77 in1008.1 mb 29.50 in999.0 mb -
Precipitation 0.02 in0.5 mm - -
Hour Temp Dew Point Humidity Winds Wind Gusts Pressure Precip Precip Rate Daily Precip Total
12:00 AM 40.1°F4.5°C 27.7°F-2.4°C 61% 0.3 mph NE0.5 kmh NE 6.0 mph9.7 kmh 29.78 in1008.5 mb 0.00 in0.0 mm 0.00 in/hr0.0 mm/hr 0.00 in0.0 mm
12:15 AM 40.3°F4.6°C 27.9°F-2.3°C 61% 2.3 mph NE3.7 kmh NE 6.0 mph9.7 kmh 29.77 in1008.1 mb 0.00 in0.0 mm 0.00 in/hr0.0 mm/hr 0.00 in0.0 mm
12:30 AM 40.6°F4.8°C 28.3°F-2.1°C 61% 2.8 mph SW4.5 kmh SW 10.7 mph17.2 kmh 29.77 in1008.1 mb 0.00 in0.0 mm 0.00 in/hr0.0 mm/hr 0.00 in0.0 mm
12:45 AM 40.5°F4.7°C 28.1°F-2.2°C 61% 0.8 mph NW1.3 kmh NW 3.8 mph6.1 kmh 29.77 in1008.1 mb 0.00 in0.0 mm 0.00 in/hr0.0 mm/hr 0.00 in0.0 mm
01:00 AM 40.1°F4.5°C 28.5°F-1.9°C 63% 1.5 mph WNW2.4 kmh WNW 6.0 mph9.7 kmh 29.77 in1008.1 mb 0.00 in0.0 mm 0.00 in/hr0.0 mm/hr 0.00 in0.0 mm
01:15 AM 39.7°F4.3°C 29.7°F-1.3°C 67% 0.7 mph WNW1.1 kmh WNW 3.8 mph6.1 kmh 29.77 in1008.1 mb 0.00 in0.0 mm 0.00 in/hr0.0 mm/hr 0.00 in0.0 mm
01:30 AM 39.0°F3.9°C 30.8°F-0.7°C 72% Calm Calm 0.7 mph1.1 kmh 29.76 in1007.8 mb 0.00 in0.0 mm 0.00 in/hr0.0 mm/hr 0.00 in0.0 mm
01:45 AM 38.3°F3.5°C 31.7°F-0.2°C 77% 0.5 mph NNE0.8 kmh NNE 2.2 mph3.5 kmh 29.75 in1007.5 mb 0.00 in0.0 mm 0.00 in/hr0.0 mm/hr 0.00 in0.0 mm
02:00 AM 37.4°F3.0°C 32.4°F0.2°C 82% 0.1 mph N0.2 kmh N 1.6 mph2.6 kmh 29.76 in1007.8 mb 0.01 in0.3 mm 0.01 in/hr0.3 mm/hr 0.01 in0.3 mm
02:15 AM 36.9°F2.7°C 31.3°F-0.4°C 80% 0.3 mph NNE0.5 kmh NNE 1.6 mph2.6 kmh 29.75 in1007.5 mb 0.01 in0.3 mm 0.00 in/hr0.0 mm/hr 0.01 in0.3 mm
02:30 AM 36.7°F2.6°C 32.0°F0.0°C 83% 0.4 mph N0.6 kmh N 1.6 mph2.6 kmh 29.75 in1007.5 mb 0.01 in0.3 mm 0.00 in/hr0.0 mm/hr 0.01 in0.3 mm
02:45 AM 36.7°F2.6°C 32.3°F0.2°C 84% Calm Calm -- 29.75 in1007.5 mb 0.01 in0.3 mm 0.00 in/hr0.0 mm/hr 0.01 in0.3 mm
03:00 AM 36.5°F2.5°C 32.1°F0.1°C 84% 0.2 mph NE0.3 kmh NE 1.6 mph2.6 kmh 29.75 in1007.5 mb 0.01 in0.3 mm 0.00 in/hr0.0 mm/hr 0.01 in0.3 mm
03:15 AM 36.5°F2.5°C 32.4°F0.2°C 85% 0.1 mph SE0.2 kmh SE 1.6 mph2.6 kmh 29.74 in1007.1 mb 0.01 in0.3 mm 0.00 in/hr0.0 mm/hr 0.02 in0.5 mm
03:30 AM 36.3°F2.4°C 32.3°F0.2°C 85% 0.1 mph NW0.2 kmh NW 1.6 mph2.6 kmh 29.73 in1006.8 mb 0.01 in0.3 mm 0.00 in/hr0.0 mm/hr 0.02 in0.5 mm
03:45 AM 36.3°F2.4°C 32.8°F0.4°C 87% 0.8 mph NNE1.3 kmh NNE 2.2 mph3.5 kmh 29.72 in1006.4 mb 0.01 in0.3 mm 0.00 in/hr0.0 mm/hr 0.02 in0.5 mm
04:00 AM 36.3°F2.4°C 33.1°F0.6°C 88% 0.6 mph N1.0 kmh N 1.6 mph2.6 kmh 29.72 in1006.4 mb 0.01 in0.3 mm 0.00 in/hr0.0 mm/hr 0.02 in0.5 mm
04:15 AM 36.3°F2.4°C 33.1°F0.6°C 88% 1.0 mph NNE1.6 kmh NNE 3.1 mph5.0 kmh 29.71 in1006.1 mb 0.00 in0.0 mm 0.00 in/hr0.0 mm/hr 0.02 in0.5 mm
04:30 AM 36.0°F2.2°C 33.0°F0.6°C 89% 0.3 mph NE0.5 kmh NE 1.6 mph2.6 kmh 29.70 in1005.8 mb 0.00 in0.0 mm 0.00 in/hr0.0 mm/hr 0.02 in0.5 mm
04:45 AM 35.8°F2.1°C 32.9°F0.5°C 89% 0.4 mph NE0.6 kmh NE 1.6 mph2.6 kmh 29.69 in1005.4 mb 0.00 in0.0 mm 0.00 in/hr0.0 mm/hr 0.02 in0.5 mm
05:00 AM 35.6°F2.0°C 32.7°F0.4°C 89% 1.0 mph NNE1.6 kmh NNE 2.2 mph3.5 kmh 29.69 in1005.4 mb 0.00 in0.0 mm 0.00 in/hr0.0 mm/hr 0.02 in0.5 mm
05:15 AM 35.6°F2.0°C 32.7°F0.4°C 89% 0.5 mph N0.8 kmh N 2.2 mph3.5 kmh 29.70 in1005.8 mb 0.00 in0.0 mm 0.00 in/hr0.0 mm/hr 0.02 in0.5 mm
05:30 AM 35.8°F2.1°C 32.9°F0.5°C 89% 0.4 mph N0.6 kmh N 2.2 mph3.5 kmh 29.70 in1005.8 mb 0.00 in0.0 mm 0.00 in/hr0.0 mm/hr 0.02 in0.5 mm
05:45 AM 36.1°F2.3°C 33.5°F0.8°C 90% Calm Calm 1.6 mph2.6 kmh 29.70 in1005.8 mb 0.00 in0.0 mm 0.00 in/hr0.0 mm/hr 0.02 in0.5 mm
06:00 AM 36.3°F2.4°C 33.7°F0.9°C 90% Calm Calm -- 29.70 in1005.8 mb 0.00 in0.0 mm 0.00 in/hr0.0 mm/hr 0.02 in0.5 mm
06:15 AM 36.5°F2.5°C 33.9°F1.1°C 90% Calm Calm 1.6 mph2.6 kmh 29.71 in1006.1 mb 0.00 in0.0 mm 0.00 in/hr0.0 mm/hr 0.02 in0.5 mm
06:30 AM 36.5°F2.5°C 33.6°F0.9°C 89% 0.1 mph NE0.2 kmh NE 2.2 mph3.5 kmh 29.70 in1005.8 mb 0.00 in0.0 mm 0.00 in/hr0.0 mm/hr 0.02 in0.5 mm
06:45 AM 36.9°F2.7°C 33.9°F1.1°C 89% 0.2 mph ENE0.3 kmh ENE 2.2 mph3.5 kmh 29.70 in1005.8 mb 0.00 in0.0 mm 0.00 in/hr0.0 mm/hr 0.02 in0.5 mm
07:00 AM 37.2°F2.9°C 34.3°F1.3°C 89% 0.6 mph SSE1.0 kmh SSE 5.4 mph8.7 kmh 29.70 in1005.8 mb 0.00 in0.0 mm 0.00 in/hr0.0 mm/hr 0.02 in0.5 mm
07:15 AM 37.9°F3.3°C 35.8°F2.1°C 92% 1.0 mph SW1.6 kmh SW 4.5 mph7.2 kmh 29.71 in1006.1 mb 0.00 in0.0 mm 0.00 in/hr0.0 mm/hr 0.02 in0.5 mm
07:30 AM 37.9°F3.3°C 34.7°F1.5°C 88% 0.1 mph ESE0.2 kmh ESE 2.2 mph3.5 kmh 29.71 in1006.1 mb 0.00 in0.0 mm 0.00 in/hr0.0 mm/hr 0.02 in0.5 mm
07:45 AM 37.6°F3.1°C 33.5°F0.8°C 85% 0.4 mph ENE0.6 kmh ENE 3.8 mph6.1 kmh 29.71 in1006.1 mb 0.00 in0.0 mm 0.00 in/hr0.0 mm/hr 0.02 in0.5 mm
08:00 AM 37.0°F2.8°C 31.1°F-0.5°C 79% 0.2 mph W0.3 kmh W 3.8 mph6.1 kmh 29.72 in1006.4 mb 0.00 in0.0 mm 0.00 in/hr0.0 mm/hr 0.02 in0.5 mm
08:15 AM 36.5°F2.5°C 30.6°F-0.8°C 79% Calm Calm 1.6 mph2.6 kmh 29.72 in1006.4 mb 0.00 in0.0 mm 0.00 in/hr0.0 mm/hr 0.02 in0.5 mm
08:30 AM 36.1°F2.3°C 30.3°F-0.9°C 79% 0.4 mph ESE0.6 kmh ESE 3.1 mph5.0 kmh 29.72 in1006.4 mb 0.00 in0.0 mm 0.00 in/hr0.0 mm/hr 0.02 in0.5 mm
08:45 AM 36.5°F2.5°C 30.6°F-0.8°C 79% 0.2 mph SSE0.3 kmh SSE 2.2 mph3.5 kmh 29.73 in1006.8 mb 0.00 in0.0 mm 0.00 in/hr0.0 mm/hr 0.02 in0.5 mm
09:00 AM 37.2°F2.9°C 31.0°F-0.6°C 78% 0.1 mph S0.2 kmh S 1.6 mph2.6 kmh 29.73 in1006.8 mb 0.00 in0.0 mm 0.00 in/hr0.0 mm/hr 0.02 in0.5 mm
09:15 AM 38.5°F3.6°C 33.2°F0.7°C 81% 0.8 mph W1.3 kmh W 3.8 mph6.1 kmh 29.73 in1006.8 mb 0.00 in0.0 mm 0.00 in/hr0.0 mm/hr 0.02 in0.5 mm
09:30 AM 39.6°F4.2°C 33.3°F0.7°C 78% 1.1 mph SSE1.8 kmh SSE 3.1 mph5.0 kmh 29.73 in1006.8 mb 0.00 in0.0 mm 0.00 in/hr0.0 mm/hr 0.02 in0.5 mm
09:45 AM 40.1°F4.5°C 33.2°F0.7°C 76% 0.2 mph SE0.3 kmh SE 2.2 mph3.5 kmh 29.73 in1006.8 mb 0.00 in0.0 mm 0.00 in/hr0.0 mm/hr 0.02 in0.5 mm
10:00 AM 40.6°F4.8°C 33.3°F0.7°C 75% 0.7 mph WSW1.1 kmh WSW 3.1 mph5.0 kmh 29.73 in1006.8 mb 0.00 in0.0 mm 0.00 in/hr0.0 mm/hr 0.02 in0.5 mm
10:15 AM 41.4°F5.2°C 33.0°F0.6°C 72% 1.5 mph SW2.4 kmh SW 7.6 mph12.2 kmh 29.73 in1006.8 mb 0.00 in0.0 mm 0.00 in/hr0.0 mm/hr 0.02 in0.5 mm
10:30 AM 41.5°F5.3°C 32.9°F0.5°C 71% 1.0 mph S1.6 kmh S 3.8 mph6.1 kmh 29.72 in1006.4 mb 0.00 in0.0 mm 0.00 in/hr0.0 mm/hr 0.02 in0.5 mm
10:45 AM 41.9°F5.5°C 33.2°F0.7°C 71% 1.1 mph S1.8 kmh S 4.5 mph7.2 kmh 29.71 in1006.1 mb 0.00 in0.0 mm 0.00 in/hr0.0 mm/hr 0.02 in0.5 mm
11:00 AM 42.6°F5.9°C 33.2°F0.7°C 69% 1.1 mph SW1.8 kmh SW 3.8 mph6.1 kmh 29.71 in1006.1 mb 0.00 in0.0 mm 0.00 in/hr0.0 mm/hr 0.02 in0.5 mm
11:15 AM 43.3°F6.3°C 33.9°F1.1°C 69% 0.6 mph SW1.0 kmh SW 3.1 mph5.0 kmh 29.70 in1005.8 mb 0.00 in0.0 mm 0.00 in/hr0.0 mm/hr 0.02 in0.5 mm
11:30 AM 43.9°F6.6°C 33.3°F0.7°C 66% 1.1 mph SE1.8 kmh SE 3.1 mph5.0 kmh 29.69 in1005.4 mb 0.00 in0.0 mm 0.00 in/hr0.0 mm/hr 0.02 in0.5 mm
11:45 AM 46.6°F8.1°C 34.7°F1.5°C 63% 1.8 mph WSW2.9 kmh WSW 6.0 mph9.7 kmh 29.67 in1004.7 mb 0.00 in0.0 mm 0.00 in/hr0.0 mm/hr 0.02 in0.5 mm
12:00 PM 47.1°F8.4°C 33.5°F0.8°C 59% 3.4 mph SW5.5 kmh SW 9.2 mph14.8 kmh 29.67 in1004.7 mb 0.00 in0.0 mm 0.00 in/hr0.0 mm/hr 0.02 in0.5 mm
12:15 PM 48.2°F9.0°C 31.9°F-0.1°C 53% 3.2 mph SSW5.1 kmh SSW 9.2 mph14.8 kmh 29.66 in1004.4 mb 0.00 in0.0 mm 0.00 in/hr0.0 mm/hr 0.02 in0.5 mm
12:30 PM 49.5°F9.7°C 32.6°F0.3°C 52% 2.7 mph WSW4.3 kmh WSW 9.8 mph15.8 kmh 29.65 in1004.1 mb 0.00 in0.0 mm 0.00 in/hr0.0 mm/hr 0.02 in0.5 mm
12:45 PM 50.5°F10.3°C 32.1°F0.1°C 49% 3.1 mph WSW5.0 kmh WSW 8.3 mph13.4 kmh 29.63 in1003.4 mb 0.00 in0.0 mm 0.00 in/hr0.0 mm/hr 0.02 in0.5 mm
01:00 PM 51.1°F10.6°C 30.5°F-0.8°C 45% 3.5 mph S5.6 kmh S 12.1 mph19.5 kmh 29.62 in1003.0 mb 0.00 in0.0 mm 0.00 in/hr0.0 mm/hr 0.02 in0.5 mm
01:15 PM 52.2°F11.2°C 29.2°F-1.6°C 41% 3.3 mph SSE5.3 kmh SSE 8.3 mph13.4 kmh 29.61 in1002.7 mb 0.00 in0.0 mm 0.00 in/hr0.0 mm/hr 0.02 in0.5 mm
01:30 PM 53.1°F11.7°C 29.4°F-1.4°C 40% 3.6 mph WSW5.8 kmh WSW 10.7 mph17.2 kmh 29.60 in1002.4 mb 0.00 in0.0 mm 0.00 in/hr0.0 mm/hr 0.02 in0.5 mm
01:45 PM 53.4°F11.9°C 28.5°F-1.9°C 38% 3.6 mph W5.8 kmh W 9.2 mph14.8 kmh 29.60 in1002.4 mb 0.00 in0.0 mm 0.00 in/hr0.0 mm/hr 0.02 in0.5 mm
02:00 PM 54.1°F12.3°C 28.5°F-1.9°C 37% 3.1 mph W5.0 kmh W 8.3 mph13.4 kmh 29.59 in1002.0 mb 0.00 in0.0 mm 0.00 in/hr0.0 mm/hr 0.02 in0.5 mm
02:15 PM 54.1°F12.3°C 27.1°F-2.7°C 35% 2.6 mph WSW4.2 kmh WSW 8.3 mph13.4 kmh 29.59 in1002.0 mb 0.00 in0.0 mm 0.00 in/hr0.0 mm/hr 0.02 in0.5 mm
02:30 PM 52.5°F11.4°C 27.7°F-2.4°C 38% 2.4 mph W3.9 kmh W 6.0 mph9.7 kmh 29.59 in1002.0 mb 0.00 in0.0 mm 0.00 in/hr0.0 mm/hr 0.02 in0.5 mm
02:45 PM 52.7°F11.5°C 28.5°F-1.9°C 39% 2.5 mph S4.0 kmh S 6.0 mph9.7 kmh 29.57 in1001.4 mb 0.00 in0.0 mm 0.00 in/hr0.0 mm/hr 0.02 in0.5 mm
03:00 PM 53.4°F11.9°C 26.5°F-3.1°C 35% 3.9 mph S6.3 kmh S 12.1 mph19.5 kmh 29.55 in1000.7 mb 0.00 in0.0 mm 0.00 in/hr0.0 mm/hr 0.02 in0.5 mm
03:15 PM 53.6°F12.0°C 25.2°F-3.8°C 33% 4.3 mph SW6.9 kmh SW 15.9 mph25.6 kmh 29.55 in1000.7 mb 0.01 in0.3 mm 0.04 in/hr1.0 mm/hr 0.02 in0.5 mm
03:30 PM 54.1°F12.3°C 26.4°F-3.1°C 34% 3.3 mph S5.3 kmh S 15.9 mph25.6 kmh 29.55 in1000.7 mb 0.01 in0.3 mm 0.00 in/hr0.0 mm/hr 0.02 in0.5 mm
03:45 PM 53.4°F11.9°C 26.5°F-3.1°C 35% 3.6 mph S5.8 kmh S 9.8 mph15.8 kmh 29.53 in1000.0 mb 0.01 in0.3 mm 0.00 in/hr0.0 mm/hr 0.02 in0.5 mm
04:00 PM 54.0°F12.2°C 26.2°F-3.2°C 34% 3.3 mph S5.3 kmh S 9.8 mph15.8 kmh 29.53 in1000.0 mb 0.01 in0.3 mm 0.00 in/hr0.0 mm/hr 0.02 in0.5 mm
04:15 PM 53.4°F11.9°C 23.6°F-4.7°C 31% 3.6 mph WSW5.8 kmh WSW 17.4 mph28.0 kmh 29.52 in999.7 mb 0.00 in0.0 mm 0.00 in/hr0.0 mm/hr 0.02 in0.5 mm
04:30 PM 52.7°F11.5°C 25.8°F-3.4°C 35% 2.8 mph WNW4.5 kmh WNW 9.2 mph14.8 kmh 29.52 in999.7 mb 0.00 in0.0 mm 0.00 in/hr0.0 mm/hr 0.02 in0.5 mm
04:45 PM 52.5°F11.4°C 27.0°F-2.8°C 37% 2.0 mph S3.2 kmh S 7.6 mph12.2 kmh 29.50 in999.0 mb 0.00 in0.0 mm 0.00 in/hr0.0 mm/hr 0.02 in0.5 mm
05:00 PM 52.7°F11.5°C 25.1°F-3.8°C 34% 2.4 mph WSW3.9 kmh WSW 6.9 mph11.1 kmh 29.50 in999.0 mb 0.00 in0.0 mm 0.00 in/hr0.0 mm/hr 0.02 in0.5 mm
05:15 PM 52.2°F11.2°C 25.4°F-3.7°C 35% 2.6 mph WSW4.2 kmh WSW 13.0 mph20.9 kmh 29.50 in999.0 mb 0.00 in0.0 mm 0.00 in/hr0.0 mm/hr 0.02 in0.5 mm
05:30 PM 51.6°F10.9°C 26.9°F-2.8°C 38% 2.3 mph SSE3.7 kmh SSE 6.9 mph11.1 kmh 29.50 in999.0 mb 0.00 in0.0 mm 0.00 in/hr0.0 mm/hr 0.02 in0.5 mm
05:45 PM 51.4°F10.8°C 27.3°F-2.6°C 39% 2.2 mph SW3.5 kmh SW 9.8 mph15.8 kmh 29.51 in999.3 mb 0.00 in0.0 mm 0.00 in/hr0.0 mm/hr 0.02 in0.5 mm
06:00 PM 51.1°F10.6°C 27.6°F-2.4°C 40% 2.8 mph W4.5 kmh W 12.1 mph19.5 kmh 29.51 in999.3 mb 0.00 in0.0 mm 0.00 in/hr0.0 mm/hr 0.02 in0.5 mm
06:15 PM 50.7°F10.4°C 27.9°F-2.3°C 41% 2.3 mph SW3.7 kmh SW 12.1 mph19.5 kmh 29.51 in999.3 mb 0.00 in0.0 mm 0.00 in/hr0.0 mm/hr 0.02 in0.5 mm
06:30 PM 50.4°F10.2°C 28.2°F-2.1°C 42% 2.5 mph WSW4.0 kmh WSW 8.3 mph13.4 kmh 29.52 in999.7 mb 0.00 in0.0 mm 0.00 in/hr0.0 mm/hr 0.02 in0.5 mm
06:45 PM 50.0°F10.0°C 29.0°F-1.7°C 44% 3.0 mph W4.8 kmh W 10.7 mph17.2 kmh 29.54 in1000.3 mb 0.00 in0.0 mm 0.00 in/hr0.0 mm/hr 0.02 in0.5 mm
07:00 PM 48.7°F9.3°C 31.4°F-0.3°C 51% 2.7 mph WNW4.3 kmh WNW 7.6 mph12.2 kmh 29.54 in1000.3 mb 0.00 in0.0 mm 0.00 in/hr0.0 mm/hr 0.02 in0.5 mm
07:15 PM 47.7°F8.7°C 32.3°F0.2°C 55% 2.4 mph WSW3.9 kmh WSW 9.8 mph15.8 kmh 29.54 in1000.3 mb 0.00 in0.0 mm 0.00 in/hr0.0 mm/hr 0.02 in0.5 mm
07:30 PM 46.8°F8.2°C 34.4°F1.3°C 62% 2.5 mph NW4.0 kmh NW 6.9 mph11.1 kmh 29.54 in1000.3 mb 0.00 in0.0 mm 0.00 in/hr0.0 mm/hr 0.02 in0.5 mm
07:45 PM 46.0°F7.8°C 32.9°F0.5°C 60% 0.5 mph NNW0.8 kmh NNW 3.1 mph5.0 kmh 29.53 in1000.0 mb 0.00 in0.0 mm 0.00 in/hr0.0 mm/hr 0.02 in0.5 mm
08:00 PM 45.7°F7.6°C 33.0°F0.6°C 61% 0.1 mph N0.2 kmh N 1.6 mph2.6 kmh 29.52 in999.7 mb 0.00 in0.0 mm 0.00 in/hr0.0 mm/hr 0.02 in0.5 mm
08:15 PM 45.5°F7.5°C 32.8°F0.4°C 61% 0.1 mph E0.2 kmh E 1.6 mph2.6 kmh 29.52 in999.7 mb 0.00 in0.0 mm 0.00 in/hr0.0 mm/hr 0.02 in0.5 mm
08:30 PM 44.8°F7.1°C 32.6°F0.3°C 62% Calm Calm -- 29.52 in999.7 mb 0.00 in0.0 mm 0.00 in/hr0.0 mm/hr 0.02 in0.5 mm
08:45 PM 44.4°F6.9°C 33.0°F0.6°C 64% Calm Calm -- 29.51 in999.3 mb 0.00 in0.0 mm 0.00 in/hr0.0 mm/hr 0.02 in0.5 mm
09:00 PM 44.1°F6.7°C 33.4°F0.8°C 66% Calm Calm -- 29.50 in999.0 mb 0.00 in0.0 mm 0.00 in/hr0.0 mm/hr 0.02 in0.5 mm
09:15 PM 43.3°F6.3°C 32.8°F0.4°C 66% 0.2 mph E0.3 kmh E 2.2 mph3.5 kmh 29.48 in998.3 mb 0.00 in0.0 mm 0.00 in/hr0.0 mm/hr 0.02 in0.5 mm
09:30 PM 42.6°F5.9°C 33.2°F0.7°C 69% 1.3 mph NE2.1 kmh NE 3.8 mph6.1 kmh 29.47 in998.0 mb 0.00 in0.0 mm 0.00 in/hr0.0 mm/hr 0.02 in0.5 mm
09:45 PM 42.3°F5.7°C 32.8°F0.4°C 69% 1.0 mph NE1.6 kmh NE 3.1 mph5.0 kmh 29.46 in997.6 mb 0.00 in0.0 mm 0.00 in/hr0.0 mm/hr 0.02 in0.5 mm
10:00 PM 41.7°F5.4°C 32.7°F0.4°C 70% 0.8 mph N1.3 kmh N 3.1 mph5.0 kmh 29.46 in997.6 mb 0.00 in0.0 mm 0.00 in/hr0.0 mm/hr 0.02 in0.5 mm
10:15 PM 41.9°F5.5°C 32.8°F0.4°C 70% 1.5 mph NE2.4 kmh NE 3.8 mph6.1 kmh 29.44 in997.0 mb 0.00 in0.0 mm 0.00 in/hr0.0 mm/hr 0.02 in0.5 mm
10:30 PM 43.0°F6.1°C 32.0°F0.0°C 65% 1.5 mph NE2.4 kmh NE 4.5 mph7.2 kmh 29.44 in997.0 mb 0.00 in0.0 mm 0.00 in/hr0.0 mm/hr 0.02 in0.5 mm
10:45 PM 43.5°F6.4°C 32.2°F0.1°C 64% 0.6 mph NE1.0 kmh NE 2.2 mph3.5 kmh 29.42 in996.3 mb 0.00 in0.0 mm 0.00 in/hr0.0 mm/hr 0.02 in0.5 mm
11:00 PM 43.2°F6.2°C 31.4°F-0.3°C 63% 1.1 mph NNE1.8 kmh NNE 3.8 mph6.1 kmh 29.42 in996.3 mb 0.00 in0.0 mm 0.00 in/hr0.0 mm/hr 0.02 in0.5 mm
11:15 PM 43.5°F6.4°C 31.8°F-0.1°C 63% 1.4 mph NE2.3 kmh NE 9.2 mph14.8 kmh 29.42 in996.3 mb 0.00 in0.0 mm 0.00 in/hr0.0 mm/hr 0.02 in0.5 mm
11:30 PM 45.0°F7.2°C 31.9°F-0.1°C 60% 2.6 mph NE4.2 kmh NE 11.4 mph18.3 kmh 29.41 in995.9 mb 0.00 in0.0 mm 0.00 in/hr0.0 mm/hr 0.02 in0.5 mm
11:45 PM 44.2°F6.8°C 32.1°F0.1°C 62% 1.6 mph NNE2.6 kmh NNE 3.8 mph6.1 kmh 29.40 in995.6 mb 0.00 in0.0 mm 0.00 in/hr0.0 mm/hr 0.02 in0.5 mm